Time;durP1;ratioP1;P1;durP2;ratioP2;P2;SDS_P1;SDS_P2;PMS_P1;PMS_P2;Temp;Humidity;BMP_temperature;BMP_pressure;BME280_temperature;BME280_humidity;BME280_pressure;Samples;Min_cycle;Max_cycle;Signal;HPM_P1;HPM_P2
2021/09/21 00:01:36;;;;;;;15.67;12.47;;;13.40;99.90;;;;;;5110251;28;20893;-67
2021/09/21 00:04:03;;;;;;;14.30;12.13;;;13.40;99.90;;;;;;5110491;28;20444;-67
2021/09/21 00:06:30;;;;;;;13.07;11.77;;;13.40;99.90;;;;;;5110358;28;20465;-67
2021/09/21 00:08:57;;;;;;;14.23;12.70;;;13.30;99.90;;;;;;5110550;28;20456;-68
2021/09/21 00:11:25;;;;;;;14.37;12.80;;;13.30;99.90;;;;;;5110106;28;20442;-66
2021/09/21 00:13:52;;;;;;;12.63;11.33;;;13.30;99.90;;;;;;5110307;28;21013;-67
2021/09/21 00:16:19;;;;;;;14.63;12.50;;;13.20;99.90;;;;;;5110536;28;20465;-67
2021/09/21 00:18:46;;;;;;;13.33;11.93;;;13.20;99.90;;;;;;5110247;28;20472;-67
2021/09/21 00:21:13;;;;;;;13.20;11.90;;;13.20;99.90;;;;;;5110109;28;20484;-67
2021/09/21 00:23:40;;;;;;;15.70;13.13;;;13.30;99.90;;;;;;5110017;28;20444;-67
2021/09/21 00:26:07;;;;;;;18.53;13.10;;;13.30;99.90;;;;;;5110741;28;20491;-67
2021/09/21 00:28:35;;;;;;;13.17;11.87;;;13.30;99.90;;;;;;5110201;28;20445;-67
2021/09/21 00:31:07;;;;;;;14.63;12.50;;;13.30;99.90;;;;;;5111018;28;20446;-67
2021/09/21 00:33:46;;;;;;;13.13;11.83;;;13.30;99.90;;;;;;5114161;28;20481;-66
2021/09/21 00:36:13;;;;;;;13.10;11.73;;;13.30;99.90;;;;;;5114562;28;20824;-67
2021/09/21 00:38:39;;;;;;;14.83;12.70;;;13.30;99.90;;;;;;5114214;28;20455;-66
2021/09/21 00:41:06;;;;;;;13.40;12.00;;;13.30;99.90;;;;;;5113963;28;20503;-66
2021/09/21 00:43:35;;;;;;;13.87;12.37;;;13.20;99.90;;;;;;5113625;27;21083;-67
2021/09/21 00:46:01;;;;;;;14.27;12.13;;;13.30;99.90;;;;;;5114424;28;20465;-66
2021/09/21 00:48:28;;;;;;;13.90;11.70;;;13.20;99.90;;;;;;5115295;28;20890;-67
2021/09/21 00:50:56;;;;;;;14.60;12.10;;;13.20;99.90;;;;;;5114693;28;20451;-67
2021/09/21 00:53:24;;;;;;;15.30;13.67;;;13.20;99.90;;;;;;5114173;27;20480;-66
2021/09/21 00:55:52;;;;;;;14.07;11.90;;;13.20;99.90;;;;;;5113769;28;20465;-67
2021/09/21 00:58:19;;;;;;;13.80;12.30;;;13.20;99.90;;;;;;5113886;28;20919;-67
2021/09/21 01:00:47;;;;;;;15.70;12.10;;;13.20;99.90;;;;;;5113881;28;20449;-67
2021/09/21 01:03:15;;;;;;;12.70;11.37;;;13.30;99.90;;;;;;5113771;28;20442;-66
2021/09/21 01:05:42;;;;;;;13.17;11.77;;;13.20;99.90;;;;;;5114227;28;20548;-66
2021/09/21 01:08:09;;;;;;;17.03;12.73;;;13.30;99.90;;;;;;5114651;28;20835;-67
2021/09/21 01:10:36;;;;;;;13.90;12.50;;;13.20;99.90;;;;;;5114414;28;20449;-67
2021/09/21 01:13:02;;;;;;;13.40;12.00;;;13.20;99.90;;;;;;5114580;28;20518;-67
2021/09/21 01:15:29;;;;;;;12.17;10.90;;;13.20;99.90;;;;;;5114115;28;20838;-68
2021/09/21 01:17:58;;;;;;;13.30;11.80;;;13.20;99.90;;;;;;5113840;28;20444;-67
2021/09/21 01:20:26;;;;;;;15.87;12.87;;;13.20;99.90;;;;;;5113742;28;20505;-67
2021/09/21 01:22:54;;;;;;;14.50;12.83;;;13.20;99.90;;;;;;5112810;28;20445;-66
2021/09/21 01:25:21;;;;;;;14.00;12.50;;;13.20;99.90;;;;;;5113533;28;20446;-67
2021/09/21 01:27:48;;;;;;;14.57;11.43;;;13.10;99.90;;;;;;5113466;28;20456;-67
2021/09/21 01:30:16;;;;;;;16.20;11.67;;;13.10;99.90;;;;;;5113724;28;20447;-66
2021/09/21 01:32:43;;;;;;;15.50;12.20;;;13.10;99.90;;;;;;5113801;28;20443;-67
2021/09/21 01:35:11;;;;;;;13.37;11.60;;;13.10;99.90;;;;;;5117098;28;20540;-67
2021/09/21 01:37:40;;;;;;;13.63;12.23;;;13.10;99.90;;;;;;5117358;28;20441;-68
2021/09/21 01:40:10;;;;;;;13.10;11.80;;;13.10;99.90;;;;;;5117439;28;20548;-67
2021/09/21 01:42:42;;;;;;;12.47;11.20;;;13.10;99.90;;;;;;5116352;28;20452;-66
2021/09/21 01:45:10;;;;;;;12.93;11.50;;;13.20;99.90;;;;;;5117521;28;20445;-67
2021/09/21 01:47:37;;;;;;;12.30;11.10;;;13.20;99.90;;;;;;5117260;28;20441;-67
2021/09/21 01:50:19;;;;;;;15.43;11.97;;;13.20;99.90;;;;;;5113317;28;20445;-67
2021/09/21 01:52:51;;;;;;;14.43;12.00;;;13.20;99.90;;;;;;5112316;28;20947;-67
2021/09/21 01:58:17;;;;;;;13.53;12.10;;;13.20;99.90;;;;;;5112604;28;20836;-65
2021/09/21 01:58:45;;;;;;;14.20;12.80;;;13.10;99.90;;;;;;5112459;28;20437;-67
2021/09/21 02:01:06;;;;;;;13.30;11.90;;;13.10;99.90;;;;;;5112430;28;20442;-67
2021/09/21 02:03:33;;;;;;;13.40;12.07;;;13.10;99.90;;;;;;5112255;28;20446;-66
2021/09/21 02:06:00;;;;;;;14.33;12.90;;;13.10;99.90;;;;;;5112216;28;21304;-67
2021/09/21 02:08:27;;;;;;;13.13;11.73;;;13.10;99.90;;;;;;5112370;28;20536;-67
2021/09/21 02:10:55;;;;;;;15.03;12.50;;;13.00;99.90;;;;;;5112337;28;20446;-66
2021/09/21 02:13:22;;;;;;;17.03;13.50;;;13.00;99.90;;;;;;5112210;28;20484;-67
2021/09/21 02:15:49;;;;;;;14.70;13.13;;;13.00;99.90;;;;;;5112172;28;20555;-67
2021/09/21 02:18:15;;;;;;;15.90;12.37;;;13.00;99.90;;;;;;5112384;28;20460;-66
2021/09/21 02:20:43;;;;;;;17.20;11.93;;;12.90;99.90;;;;;;5112097;28;20447;-67
2021/09/21 02:23:10;;;;;;;14.40;13.00;;;12.90;99.90;;;;;;5111764;28;20449;-68
2021/09/21 02:25:36;;;;;;;12.93;11.70;;;13.00;99.90;;;;;;5111768;28;21008;-67
2021/09/21 02:28:05;;;;;;;13.73;12.27;;;13.00;99.90;;;;;;5112073;28;20441;-67
2021/09/21 02:30:32;;;;;;;13.83;11.50;;;13.00;99.90;;;;;;5111935;27;20453;-70
2021/09/21 02:32:59;;;;;;;12.73;11.43;;;12.90;99.90;;;;;;5111694;28;20443;-67
2021/09/21 02:35:26;;;;;;;12.90;11.33;;;13.00;99.90;;;;;;5111489;28;20605;-67
2021/09/21 02:37:53;;;;;;;12.97;11.63;;;12.90;99.90;;;;;;5111630;28;20449;-67
2021/09/21 02:40:20;;;;;;;13.70;11.33;;;12.90;99.90;;;;;;5111758;28;20453;-66
2021/09/21 02:42:47;;;;;;;13.90;11.90;;;12.90;99.90;;;;;;5111677;28;20456;-67
2021/09/21 02:45:15;;;;;;;13.83;11.90;;;12.80;99.90;;;;;;5111604;28;20441;-66
2021/09/21 02:47:42;;;;;;;12.70;11.03;;;12.80;99.90;;;;;;5111708;28;20472;-67
2021/09/21 02:50:10;;;;;;;12.00;10.80;;;12.80;99.90;;;;;;5111599;28;20446;-66
2021/09/21 02:52:39;;;;;;;14.07;11.73;;;12.80;99.90;;;;;;5111074;28;20514;-67
2021/09/21 02:55:07;;;;;;;13.53;11.73;;;12.70;99.90;;;;;;5110336;28;20938;-67
2021/09/21 02:57:35;;;;;;;13.30;11.90;;;12.70;99.90;;;;;;5111019;28;20537;-67
2021/09/21 03:00:05;;;;;;;11.77;10.57;;;12.60;99.90;;;;;;5111110;28;20441;-67
2021/09/21 03:02:34;;;;;;;12.83;11.53;;;12.60;99.90;;;;;;5110958;28;20446;-67
2021/09/21 03:05:04;;;;;;;14.37;12.87;;;12.70;99.90;;;;;;5111158;28;20445;-66
2021/09/21 03:07:35;;;;;;;14.40;11.47;;;12.70;99.90;;;;;;5111356;28;20449;-67
2021/09/21 03:10:25;;;;;;;14.47;12.20;;;12.60;99.90;;;;;;5111318;27;20463;-67
2021/09/21 03:13:20;;;;;;;13.70;11.40;;;12.50;99.90;;;;;;5110816;28;20472;-67
2021/09/21 03:18:34;;;;;;;13.97;11.93;;;12.60;99.90;;;;;;5110989;28;20436;-67
2021/09/21 03:21:00;;;;;;;12.90;11.60;;;12.50;99.90;;;;;;5110970;28;20452;-69
2021/09/21 03:23:28;;;;;;;12.83;11.50;;;12.50;99.90;;;;;;5110924;28;20450;-67
2021/09/21 03:25:55;;;;;;;13.30;11.90;;;12.50;99.90;;;;;;5110711;28;20465;-66
2021/09/21 03:28:22;;;;;;;12.27;10.73;;;12.50;99.90;;;;;;5110825;28;20481;-67
2021/09/21 03:30:49;;;;;;;13.30;11.80;;;12.40;99.90;;;;;;5110900;28;20449;-67
2021/09/21 03:33:16;;;;;;;12.93;11.63;;;12.30;99.90;;;;;;5110541;27;20454;-66
2021/09/21 03:35:45;;;;;;;14.17;12.67;;;12.30;99.90;;;;;;5110655;28;20819;-67
2021/09/21 03:38:12;;;;;;;12.70;11.40;;;12.30;99.90;;;;;;5110762;28;20448;-67
2021/09/21 03:40:39;;;;;;;12.83;10.60;;;12.30;99.90;;;;;;5110499;28;20534;-67
2021/09/21 03:43:06;;;;;;;13.40;11.50;;;12.20;99.90;;;;;;5110632;27;20884;-67
2021/09/21 03:45:33;;;;;;;11.80;10.70;;;12.20;99.90;;;;;;5110799;28;20468;-66
2021/09/21 03:48:00;;;;;;;16.30;13.20;;;12.30;99.90;;;;;;5111106;28;20482;-66
2021/09/21 03:50:27;;;;;;;13.40;11.30;;;12.30;99.90;;;;;;5110934;28;20437;-67
2021/09/21 03:52:55;;;;;;;13.63;11.50;;;12.30;99.90;;;;;;5110319;28;20500;-67
2021/09/21 03:55:23;;;;;;;12.17;10.97;;;12.30;99.90;;;;;;5110191;28;20917;-67
2021/09/21 03:57:50;;;;;;;12.70;11.40;;;12.40;99.90;;;;;;5110850;28;20452;-67
2021/09/21 04:00:18;;;;;;;12.40;11.10;;;12.40;99.90;;;;;;5110656;28;20449;-67
2021/09/21 04:02:45;;;;;;;12.33;11.03;;;12.40;99.90;;;;;;5110468;28;20452;-67
2021/09/21 04:05:11;;;;;;;13.93;11.83;;;12.40;99.90;;;;;;5111733;28;20451;-69
2021/09/21 04:07:39;;;;;;;15.30;10.83;;;12.30;99.90;;;;;;5114647;28;20445;-68
2021/09/21 04:10:08;;;;;;;13.70;12.30;;;12.30;99.90;;;;;;5114678;28;20532;-67
2021/09/21 04:12:36;;;;;;;17.80;12.37;;;12.30;99.90;;;;;;5114224;28;20533;-66
2021/09/21 04:15:04;;;;;;;13.10;11.70;;;12.20;99.90;;;;;;5114246;28;20484;-67
2021/09/21 04:17:32;;;;;;;14.77;13.13;;;12.20;99.90;;;;;;5114392;28;20477;-67
2021/09/21 04:19:59;;;;;;;12.50;11.07;;;12.20;99.90;;;;;;5114614;28;20943;-67
2021/09/21 04:22:27;;;;;;;13.60;11.73;;;12.20;99.90;;;;;;5113815;28;20536;-67
2021/09/21 04:24:54;;;;;;;12.77;11.47;;;12.10;99.90;;;;;;5114414;28;20626;-68
2021/09/21 04:27:23;;;;;;;13.73;12.03;;;12.10;99.90;;;;;;5114044;28;20547;-67
2021/09/21 04:29:50;;;;;;;13.83;12.30;;;12.00;99.90;;;;;;5114328;28;20453;-68
2021/09/21 04:32:20;;;;;;;12.47;11.17;;;12.00;99.90;;;;;;5113922;28;20449;-67
2021/09/21 04:34:47;;;;;;;13.53;12.13;;;12.00;99.90;;;;;;5114030;28;20858;-70
2021/09/21 04:37:14;;;;;;;16.30;11.33;;;12.00;99.90;;;;;;5114415;28;20488;-67
2021/09/21 04:39:41;;;;;;;14.53;11.70;;;11.90;99.90;;;;;;5114140;27;20452;-66
2021/09/21 04:42:08;;;;;;;15.00;12.43;;;12.00;99.90;;;;;;5113657;27;20509;-67
2021/09/21 04:44:37;;;;;;;15.87;13.53;;;12.00;99.90;;;;;;5113958;28;20487;-67
2021/09/21 04:47:05;;;;;;;12.80;11.50;;;11.90;99.90;;;;;;5113795;28;20461;-67
2021/09/21 04:49:34;;;;;;;13.30;10.60;;;11.90;99.90;;;;;;5113877;28;20440;-67
2021/09/21 04:52:01;;;;;;;12.87;11.37;;;11.90;99.90;;;;;;5113926;28;20445;-68
2021/09/21 04:54:28;;;;;;;14.40;12.30;;;11.90;99.90;;;;;;5114641;28;20556;-67
2021/09/21 04:56:54;;;;;;;15.37;12.17;;;12.00;99.90;;;;;;5115324;28;20979;-67
2021/09/21 04:59:21;;;;;;;12.00;10.80;;;12.00;99.90;;;;;;5114796;27;20472;-67
2021/09/21 05:01:49;;;;;;;15.77;12.10;;;12.00;99.90;;;;;;5118206;27;20886;-66
2021/09/21 05:04:16;;;;;;;13.47;12.10;;;12.00;99.90;;;;;;5124686;27;20478;-69
2021/09/21 05:06:43;;;;;;;15.90;11.50;;;12.00;99.90;;;;;;5126884;27;20532;-67
2021/09/21 05:09:13;;;;;;;11.93;10.70;;;12.00;99.90;;;;;;5126223;27;20462;-66
2021/09/21 05:11:40;;;;;;;11.43;10.37;;;12.00;99.90;;;;;;5132049;27;20436;-67
2021/09/21 05:14:07;;;;;;;11.93;10.30;;;12.00;99.90;;;;;;5132260;27;20472;-65
2021/09/21 05:16:34;;;;;;;10.83;9.70;;;12.00;99.90;;;;;;5131278;27;20559;-66
2021/09/21 05:19:03;;;;;;;12.17;10.97;;;12.00;99.90;;;;;;5133045;27;20445;-66
2021/09/21 05:21:30;;;;;;;11.80;10.60;;;12.00;99.90;;;;;;5133375;27;20629;-66
2021/09/21 05:23:57;;;;;;;12.93;11.57;;;12.00;99.90;;;;;;5133368;27;20458;-67
2021/09/21 05:26:24;;;;;;;12.17;10.80;;;12.10;99.90;;;;;;5133222;27;20464;-66
2021/09/21 05:28:51;;;;;;;15.03;12.10;;;12.10;99.90;;;;;;5133835;27;20470;-66
2021/09/21 05:31:18;;;;;;;13.83;11.73;;;12.20;99.90;;;;;;5134018;27;20961;-65
2021/09/21 05:33:44;;;;;;;15.40;12.33;;;12.20;99.90;;;;;;5134280;27;20445;-66
2021/09/21 05:36:13;;;;;;;13.03;11.57;;;12.10;99.90;;;;;;5133823;27;20519;-66
2021/09/21 05:38:40;;;;;;;10.87;9.77;;;12.20;99.90;;;;;;5133522;27;20448;-66
2021/09/21 05:41:07;;;;;;;16.50;11.60;;;12.20;99.90;;;;;;5133020;27;20543;-67
2021/09/21 05:43:35;;;;;;;14.27;12.20;;;12.20;99.90;;;;;;5132859;27;20448;-66
2021/09/21 05:46:02;;;;;;;13.90;12.00;;;12.20;99.90;;;;;;5132960;27;21076;-65
2021/09/21 05:48:29;;;;;;;14.23;11.90;;;12.20;99.90;;;;;;5133067;27;20436;-66
2021/09/21 05:50:56;;;;;;;13.00;11.70;;;12.30;99.90;;;;;;5133166;27;20444;-66
2021/09/21 05:53:24;;;;;;;14.17;11.80;;;12.30;99.90;;;;;;5132621;27;20536;-67
2021/09/21 05:55:51;;;;;;;13.40;11.07;;;12.40;99.90;;;;;;5132752;27;20583;-66
2021/09/21 05:58:18;;;;;;;15.50;11.33;;;12.50;99.90;;;;;;5132680;27;20449;-66
2021/09/21 06:00:45;;;;;;;12.43;10.80;;;12.50;99.90;;;;;;5132965;27;20534;-67
2021/09/21 06:03:12;;;;;;;12.70;11.40;;;12.40;99.90;;;;;;5132377;27;20440;-67
2021/09/21 06:05:39;;;;;;;11.47;10.27;;;12.40;99.90;;;;;;5132788;27;20460;-65
2021/09/21 06:08:06;;;;;;;13.00;11.13;;;12.40;99.90;;;;;;5132560;27;21178;-66
2021/09/21 06:10:35;;;;;;;13.03;11.73;;;12.30;99.90;;;;;;5132537;27;20858;-67
2021/09/21 06:13:02;;;;;;;13.80;10.77;;;12.30;99.90;;;;;;5132395;27;20444;-66
2021/09/21 06:15:29;;;;;;;13.57;11.40;;;12.30;99.90;;;;;;5132458;27;20494;-67
2021/09/21 06:17:56;;;;;;;13.50;12.10;;;12.30;99.90;;;;;;5132733;27;20547;-67
2021/09/21 06:20:23;;;;;;;13.10;11.43;;;12.20;99.90;;;;;;5132371;27;20523;-67
2021/09/21 06:22:50;;;;;;;12.43;11.13;;;12.30;99.90;;;;;;5131997;27;20445;-66
2021/09/21 06:25:17;;;;;;;13.97;11.77;;;12.40;99.90;;;;;;5132193;27;20447;-66
2021/09/21 06:27:46;;;;;;;20.23;12.43;;;12.50;99.90;;;;;;5132448;27;20448;-66
2021/09/21 06:30:15;;;;;;;13.60;11.57;;;12.50;99.90;;;;;;5132415;27;20820;-66
2021/09/21 06:32:43;;;;;;;19.03;10.80;;;12.60;99.90;;;;;;5132187;27;20452;-66
2021/09/21 06:35:10;;;;;;;12.80;10.30;;;12.70;99.90;;;;;;5132281;27;20555;-65
2021/09/21 06:37:38;;;;;;;14.37;12.73;;;12.80;99.90;;;;;;5132326;27;20455;-66
2021/09/21 06:40:06;;;;;;;13.37;11.53;;;12.80;99.90;;;;;;5132137;27;20926;-66
2021/09/21 06:42:33;;;;;;;12.47;11.03;;;12.90;99.90;;;;;;5132030;27;20445;-66
2021/09/21 06:45:03;;;;;;;15.27;11.07;;;12.90;99.90;;;;;;5131982;27;21008;-66
2021/09/21 06:47:29;;;;;;;12.07;10.87;;;12.90;99.90;;;;;;5131995;27;20468;-66
2021/09/21 06:49:56;;;;;;;12.30;10.90;;;12.90;99.90;;;;;;5131797;27;20462;-66
2021/09/21 06:52:24;;;;;;;11.10;9.90;;;12.90;99.90;;;;;;5131752;27;20448;-66
2021/09/21 06:54:51;;;;;;;10.73;9.73;;;13.00;99.90;;;;;;5131946;27;20525;-66
2021/09/21 06:57:18;;;;;;;15.13;11.27;;;12.90;99.90;;;;;;5131733;27;20543;-66
2021/09/21 06:59:45;;;;;;;13.43;11.30;;;12.90;99.90;;;;;;5131776;27;20445;-67
2021/09/21 07:02:13;;;;;;;18.17;10.63;;;12.90;99.90;;;;;;5131576;27;20470;-66
2021/09/21 07:04:40;;;;;;;12.40;10.60;;;12.90;99.90;;;;;;5131475;27;20445;-66
2021/09/21 07:07:07;;;;;;;11.43;9.87;;;12.90;99.90;;;;;;5131480;27;20471;-66
2021/09/21 07:09:34;;;;;;;12.37;9.90;;;12.90;99.90;;;;;;5131588;27;20476;-66
2021/09/21 07:12:01;;;;;;;13.00;10.47;;;13.00;99.90;;;;;;5131293;27;20964;-66
2021/09/21 07:14:29;;;;;;;19.93;10.53;;;13.00;99.90;;;;;;5131328;27;20483;-65
2021/09/21 07:16:56;;;;;;;12.70;9.60;;;13.10;99.90;;;;;;5131168;27;20464;-66
2021/09/21 07:19:24;;;;;;;11.77;10.13;;;13.10;99.90;;;;;;5131399;27;20453;-65
2021/09/21 07:21:51;;;;;;;11.83;10.37;;;13.10;99.90;;;;;;5131175;27;20455;-65
2021/09/21 07:24:18;;;;;;;11.27;10.13;;;13.20;99.90;;;;;;5131413;27;20451;-66
2021/09/21 07:26:48;;;;;;;13.40;10.03;;;13.40;99.90;;;;;;5131254;27;20646;-66
2021/09/21 07:29:15;;;;;;;12.67;10.43;;;13.40;99.90;;;;;;5131469;27;20440;-66
2021/09/21 07:31:42;;;;;;;11.50;9.73;;;13.40;99.90;;;;;;5130708;27;20440;-65
2021/09/21 07:34:09;;;;;;;14.70;10.27;;;13.40;99.90;;;;;;5131244;27;20539;-66
2021/09/21 07:36:38;;;;;;;13.97;10.03;;;13.50;99.90;;;;;;5130877;27;21009;-65
2021/09/21 07:39:05;;;;;;;10.90;9.43;;;13.50;99.90;;;;;;5131411;27;20448;-66
2021/09/21 07:41:32;;;;;;;10.30;9.17;;;13.50;99.90;;;;;;5130128;27;20456;-66
2021/09/21 07:43:59;;;;;;;11.37;9.67;;;13.60;99.90;;;;;;5131034;27;20444;-66
2021/09/21 07:46:26;;;;;;;10.67;9.57;;;13.60;99.90;;;;;;5130791;27;20464;-66
2021/09/21 07:48:53;;;;;;;11.60;10.23;;;13.60;99.90;;;;;;5131283;27;20504;-65
2021/09/21 07:51:20;;;;;;;12.63;11.43;;;13.70;99.90;;;;;;5131010;27;20471;-66
2021/09/21 07:53:49;;;;;;;11.80;9.57;;;13.80;99.90;;;;;;5130883;27;20531;-66
2021/09/21 07:56:16;;;;;;;11.93;9.50;;;13.90;99.90;;;;;;5130909;27;20488;-65
2021/09/21 07:58:43;;;;;;;10.80;9.13;;;13.90;99.90;;;;;;5130961;27;20447;-71
2021/09/21 08:01:10;;;;;;;10.27;9.18;;;14.00;99.90;;;;;;5130696;27;20454;-66
2021/09/21 08:03:37;;;;;;;11.17;10.07;;;14.10;99.90;;;;;;5131277;27;20476;-66
2021/09/21 08:06:04;;;;;;;10.40;9.40;;;14.10;99.90;;;;;;5131555;27;20559;-65
2021/09/21 08:08:31;;;;;;;10.67;9.40;;;14.20;99.90;;;;;;5131107;27;20445;-66
2021/09/21 08:11:01;;;;;;;10.63;9.53;;;14.30;99.90;;;;;;5131115;27;20519;-66
2021/09/21 08:13:30;;;;;;;9.30;8.40;;;14.30;99.90;;;;;;5130498;27;20444;-66
2021/09/21 08:15:57;;;;;;;9.00;7.50;;;14.40;99.90;;;;;;5130925;27;20479;-65
2021/09/21 08:18:24;;;;;;;10.43;9.43;;;14.50;99.90;;;;;;5131146;27;20448;-65
2021/09/21 08:20:51;;;;;;;9.97;8.97;;;14.60;99.90;;;;;;5130977;27;20447;-65
2021/09/21 08:23:18;;;;;;;8.87;7.97;;;14.80;99.90;;;;;;5130445;27;20444;-66
2021/09/21 08:25:44;;;;;;;10.57;9.17;;;14.80;99.90;;;;;;5130665;27;20495;-66
2021/09/21 08:28:13;;;;;;;10.13;9.13;;;15.00;99.90;;;;;;5130732;27;20475;-66
2021/09/21 08:30:40;;;;;;;9.50;8.60;;;15.10;99.90;;;;;;5131364;27;20440;-70
2021/09/21 08:33:06;;;;;;;8.97;8.07;;;15.20;99.90;;;;;;5131342;27;20502;-67
2021/09/21 08:35:33;;;;;;;10.30;7.43;;;15.30;99.90;;;;;;5130837;27;20941;-67
2021/09/21 08:38:00;;;;;;;8.13;7.13;;;15.50;99.90;;;;;;5130806;27;20479;-67
2021/09/21 08:40:28;;;;;;;9.37;7.50;;;15.50;99.90;;;;;;5130581;27;20460;-67
2021/09/21 08:42:55;;;;;;;8.83;6.97;;;15.60;99.90;;;;;;5130538;27;20467;-66
2021/09/21 08:45:23;;;;;;;7.83;7.10;;;15.60;99.90;;;;;;5131505;27;20437;-67
2021/09/21 08:47:50;;;;;;;8.53;7.63;;;15.70;99.90;;;;;;5130921;27;20448;-67
2021/09/21 08:50:18;;;;;;;7.83;7.13;;;15.70;99.90;;;;;;5130663;27;20459;-67
2021/09/21 08:52:45;;;;;;;7.90;7.10;;;15.70;99.90;;;;;;5132372;27;20934;-67
2021/09/21 08:55:14;;;;;;;7.70;7.00;;;15.80;99.90;;;;;;5136179;27;20875;-66
2021/09/21 08:57:42;;;;;;;8.77;7.87;;;15.90;99.90;;;;;;5135446;27;20523;-66
2021/09/21 09:00:12;;;;;;;9.20;8.30;;;15.80;99.90;;;;;;5136447;27;20447;-67
2021/09/21 09:02:40;;;;;;;7.10;6.40;;;15.70;99.90;;;;;;5133786;27;20440;-67
2021/09/21 09:05:12;;;;;;;7.80;7.03;;;16.00;99.90;;;;;;5133822;27;20444;-67
2021/09/21 09:07:49;;;;;;;8.60;7.17;;;16.20;99.90;;;;;;5133805;27;20787;-67
2021/09/21 09:10:17;;;;;;;9.93;7.33;;;16.60;99.90;;;;;;5134072;27;20458;-67
2021/09/21 09:12:43;;;;;;;9.40;7.33;;;16.90;99.90;;;;;;5133555;27;20535;-67
2021/09/21 09:15:12;;;;;;;8.30;7.57;;;17.00;99.90;;;;;;5133854;27;20479;-67
2021/09/21 09:17:52;;;;;;;10.60;7.43;;;17.00;99.90;;;;;;5133673;27;20878;-67
2021/09/21 09:20:19;;;;;;;8.00;6.97;;;17.20;99.90;;;;;;5133660;27;20539;-67
2021/09/21 09:22:56;;;;;;;8.30;7.60;;;17.40;99.90;;;;;;5133572;27;20456;-67
2021/09/21 09:25:24;;;;;;;7.93;7.13;;;17.70;99.90;;;;;;5133790;27;20444;-66
2021/09/21 09:27:52;;;;;;;7.50;6.80;;;18.20;99.90;;;;;;5133630;27;20512;-67
2021/09/21 09:30:22;;;;;;;7.87;7.17;;;18.10;99.90;;;;;;5133524;27;20455;-67
2021/09/21 09:32:52;;;;;;;8.90;8.10;;;17.70;99.90;;;;;;5133530;27;20448;-67
2021/09/21 09:35:27;;;;;;;8.03;7.23;;;17.80;99.90;;;;;;5133470;27;20444;-67
2021/09/21 09:37:55;;;;;;;8.67;7.77;;;17.70;99.90;;;;;;5133362;27;20455;-67
2021/09/21 09:40:22;;;;;;;8.37;7.57;;;17.70;99.90;;;;;;5133209;27;20456;-66
2021/09/21 09:42:49;;;;;;;8.20;7.50;;;17.90;99.90;;;;;;5133110;27;20968;-67
2021/09/21 09:45:29;;;;;;;7.37;6.77;;;18.10;99.90;;;;;;5133611;27;20451;-66
2021/09/21 09:47:58;;;;;;;8.37;7.57;;;18.10;99.90;;;;;;5133309;27;20483;-67
2021/09/21 09:50:27;;;;;;;7.40;6.70;;;18.20;99.90;;;;;;5133374;27;20447;-67
2021/09/21 09:53:03;;;;;;;7.57;6.80;;;18.50;99.90;;;;;;5133040;27;21034;-67
2021/09/21 09:55:32;;;;;;;10.80;8.17;;;19.00;99.90;;;;;;5133246;27;20498;-67
2021/09/21 09:58:00;;;;;;;8.00;7.20;;;19.00;98.90;;;;;;5133415;27;20482;-67
2021/09/21 10:00:27;;;;;;;8.03;7.23;;;19.20;98.40;;;;;;5133330;27;20527;-67
2021/09/21 10:02:54;;;;;;;7.83;7.07;;;19.60;97.30;;;;;;5132592;27;20455;-67
2021/09/21 10:05:23;;;;;;;8.30;7.50;;;19.90;99.00;;;;;;5132870;27;20448;-67
2021/09/21 10:07:50;;;;;;;8.17;7.37;;;19.90;96.80;;;;;;5132815;27;20451;-68
2021/09/21 10:10:17;;;;;;;6.97;6.27;;;20.10;99.50;;;;;;5132628;27;20440;-67
2021/09/21 10:12:44;;;;;;;7.10;5.73;;;20.40;96.90;;;;;;5132453;27;20795;-67
2021/09/21 10:15:13;;;;;;;7.20;6.50;;;20.40;95.40;;;;;;5132634;27;20451;-67
2021/09/21 10:17:53;;;;;;;7.70;7.00;;;20.30;95.70;;;;;;5132655;27;20476;-67
2021/09/21 10:20:20;;;;;;;8.07;7.20;;;19.70;95.00;;;;;;5132548;27;20440;-67
2021/09/21 10:22:54;;;;;;;6.27;5.67;;;18.90;95.60;;;;;;5132369;27;20448;-67
2021/09/21 10:25:28;;;;;;;7.53;6.83;;;18.70;96.60;;;;;;5132287;27;20451;-67
2021/09/21 10:27:56;;;;;;;8.10;7.30;;;18.20;97.30;;;;;;5132486;27;20513;-67
2021/09/21 10:30:24;;;;;;;7.60;6.83;;;18.20;96.80;;;;;;5132202;27;20448;-66
2021/09/21 10:32:52;;;;;;;7.40;6.80;;;18.50;96.80;;;;;;5131830;27;20539;-66
2021/09/21 10:35:21;;;;;;;7.77;6.63;;;18.90;96.30;;;;;;5131944;27;20446;-67
2021/09/21 10:38:00;;;;;;;7.83;7.03;;;18.90;96.30;;;;;;5132280;27;20583;-67
2021/09/21 10:40:41;;;;;;;10.53;8.03;;;19.40;95.60;;;;;;5132116;27;20482;-67
2021/09/21 10:43:25;;;;;;;8.20;7.50;;;19.80;96.00;;;;;;5131846;27;20535;-67
2021/09/21 10:46:05;;;;;;;8.77;7.87;;;20.00;96.00;;;;;;5132139;27;20457;-67
2021/09/21 10:48:35;;;;;;;7.50;6.80;;;19.70;95.60;;;;;;5132184;27;20452;-67
2021/09/21 10:51:03;;;;;;;7.23;6.53;;;19.30;95.60;;;;;;5132040;27;20520;-65
2021/09/21 10:53:32;;;;;;;8.13;7.13;;;19.50;97.20;;;;;;5131503;27;20440;-68
2021/09/21 10:56:00;;;;;;;6.60;6.00;;;20.10;95.80;;;;;;5131549;27;20480;-66
2021/09/21 10:58:27;;;;;;;7.33;6.63;;;20.60;96.40;;;;;;5131626;27;21005;-64
2021/09/21 11:00:54;;;;;;;9.10;6.80;;;21.30;96.00;;;;;;5131865;27;20444;-64
2021/09/21 11:03:23;;;;;;;8.17;7.47;;;21.70;94.10;;;;;;5131439;27;20459;-64
2021/09/21 11:05:50;;;;;;;7.37;6.73;;;21.50;93.00;;;;;;5131662;27;20472;-67
2021/09/21 11:08:18;;;;;;;7.43;6.73;;;20.40;93.40;;;;;;5131460;27;20821;-67
2021/09/21 11:10:49;;;;;;;8.73;6.83;;;19.90;94.40;;;;;;5131436;27;20926;-66
2021/09/21 11:13:18;;;;;;;7.20;6.30;;;19.70;94.90;;;;;;5131331;27;20445;-67
2021/09/21 11:15:46;;;;;;;7.27;6.57;;;19.50;95.60;;;;;;5130811;27;20891;-67
2021/09/21 11:18:15;;;;;;;7.23;6.33;;;19.40;95.40;;;;;;5131436;27;20445;-67
2021/09/21 11:20:48;;;;;;;8.23;7.43;;;19.20;95.00;;;;;;5131386;27;20467;-67
2021/09/21 11:23:16;;;;;;;8.73;7.80;;;19.10;95.40;;;;;;5130846;27;20539;-66
2021/09/21 11:25:44;;;;;;;9.33;8.43;;;19.00;95.30;;;;;;5131214;27;20460;-67
2021/09/21 11:28:14;;;;;;;7.90;7.20;;;18.90;96.30;;;;;;5131223;27;20448;-67
2021/09/21 11:30:41;;;;;;;8.70;7.63;;;18.70;96.30;;;;;;5131316;27;20548;-67
2021/09/21 11:33:13;;;;;;;7.67;6.87;;;19.10;96.50;;;;;;5130919;27;20454;-68
2021/09/21 11:35:45;;;;;;;8.13;7.20;;;19.40;96.70;;;;;;5131174;27;20470;-67
2021/09/21 11:38:12;;;;;;;7.17;6.47;;;20.00;95.60;;;;;;5131260;27;20960;-67
2021/09/21 11:40:40;;;;;;;8.30;7.60;;;20.60;94.30;;;;;;5131127;27;20547;-67
2021/09/21 11:43:06;;;;;;;8.03;7.23;;;21.40;95.00;;;;;;5130700;27;20445;-66
2021/09/21 11:45:35;;;;;;;8.67;7.77;;;22.00;92.90;;;;;;5130988;27;20456;-67
2021/09/21 11:48:02;;;;;;;7.50;6.40;;;21.90;91.20;;;;;;5130726;27;20432;-67
2021/09/21 11:50:33;;;;;;;7.20;6.60;;;21.50;91.90;;;;;;5131359;27;20436;-67
2021/09/21 11:53:02;;;;;;;8.07;7.27;;;21.00;94.00;;;;;;5130506;27;20476;-66
2021/09/21 11:55:31;;;;;;;7.77;6.63;;;21.10;94.60;;;;;;5130847;27;20496;-67
2021/09/21 11:57:58;;;;;;;8.33;7.50;;;22.00;92.50;;;;;;5130614;27;20479;-67
2021/09/21 12:00:28;;;;;;;7.00;6.30;;;22.60;90.40;;;;;;5130874;27;20445;-68
2021/09/21 12:02:58;;;;;;;7.70;6.60;;;23.20;90.50;;;;;;5130392;27;20440;-67
2021/09/21 12:05:26;;;;;;;7.97;7.17;;;23.60;90.90;;;;;;5130759;27;20935;-67
2021/09/21 12:07:53;;;;;;;8.27;7.23;;;23.60;90.50;;;;;;5130838;27;20436;-67
2021/09/21 12:10:24;;;;;;;8.50;7.57;;;23.50;90.50;;;;;;5131031;27;20559;-67
2021/09/21 12:13:00;;;;;;;8.60;7.70;;;23.30;90.00;;;;;;5130410;27;20476;-67
2021/09/21 12:15:29;;;;;;;10.87;8.57;;;23.40;92.10;;;;;;5130468;27;21032;-67
2021/09/21 12:17:58;;;;;;;8.63;7.73;;;23.90;87.30;;;;;;5130430;27;20480;-67
2021/09/21 12:20:26;;;;;;;8.60;7.70;;;22.20;89.30;;;;;;5130861;27;20830;-67
2021/09/21 12:22:53;;;;;;;8.93;8.03;;;20.80;91.60;;;;;;5130104;27;20476;-67
2021/09/21 12:25:22;;;;;;;8.07;7.27;;;21.00;91.80;;;;;;5130650;27;21138;-67
2021/09/21 12:27:54;;;;;;;8.60;7.80;;;22.70;92.40;;;;;;5134647;27;20524;-67
2021/09/21 12:30:23;;;;;;;10.10;9.17;;;24.40;87.50;;;;;;5135109;27;20929;-67
2021/09/21 12:32:59;;;;;;;8.90;8.10;;;23.30;86.70;;;;;;5134777;27;20456;-67
2021/09/21 12:35:29;;;;;;;9.20;8.30;;;22.20;90.20;;;;;;5134924;27;20470;-67
2021/09/21 12:38:02;;;;;;;9.53;8.60;;;20.60;91.00;;;;;;5134857;27;20487;-67
2021/09/21 12:40:29;;;;;;;9.00;8.10;;;20.00;95.60;;;;;;5135099;27;20550;-67
2021/09/21 12:42:56;;;;;;;9.87;7.33;;;20.80;92.50;;;;;;5134490;27;20890;-67